createdAt,value
2023-04-30T00:02:13.277Z,13.20
2023-04-30T00:04:39.879Z,13.20
2023-04-30T00:07:06.528Z,13.20
2023-04-30T00:09:33.150Z,13.10
2023-04-30T00:11:59.799Z,13.10
2023-04-30T00:14:26.444Z,13.10
2023-04-30T00:16:53.107Z,13.10
2023-04-30T00:19:19.781Z,13.10
2023-04-30T00:21:46.495Z,13.10
2023-04-30T00:24:13.178Z,13.10
2023-04-30T00:26:39.873Z,13.10
2023-04-30T00:29:07.003Z,13.10
2023-04-30T00:31:33.683Z,13.00
2023-04-30T00:34:00.374Z,13.00
2023-04-30T00:36:27.022Z,12.90
2023-04-30T00:38:53.755Z,12.90
2023-04-30T00:41:22.675Z,12.80
2023-04-30T00:43:49.315Z,12.70
2023-04-30T00:46:16.061Z,12.70
2023-04-30T00:48:42.796Z,12.60
2023-04-30T00:51:09.480Z,12.60
2023-04-30T00:53:37.474Z,12.50
2023-04-30T00:56:05.334Z,12.50
2023-04-30T00:58:32.189Z,12.40
2023-04-30T01:00:59.255Z,12.40
2023-04-30T01:03:26.366Z,12.40
2023-04-30T01:05:54.057Z,12.30
2023-04-30T01:08:21.071Z,12.30
2023-04-30T01:11:11.867Z,12.20
2023-04-30T01:13:45.735Z,12.20
2023-04-30T01:16:22.740Z,12.20
2023-04-30T01:18:54.936Z,12.20
2023-04-30T01:21:21.962Z,12.20
2023-04-30T01:24:12.925Z,12.30
2023-04-30T01:26:42.517Z,12.30
2023-04-30T01:29:12.338Z,12.30
2023-04-30T01:31:39.063Z,12.30
2023-04-30T01:34:05.697Z,12.40
2023-04-30T01:36:59.700Z,12.40
2023-04-30T01:39:31.963Z,12.40
2023-04-30T01:42:06.595Z,12.50
2023-04-30T01:44:49.029Z,12.50
2023-04-30T01:47:34.959Z,12.50
2023-04-30T01:50:24.886Z,12.50
2023-04-30T01:52:58.911Z,12.50
2023-04-30T01:55:32.570Z,12.60
2023-04-30T01:58:01.370Z,12.60
2023-04-30T02:00:30.438Z,12.60
2023-04-30T02:02:57.991Z,12.60
2023-04-30T02:05:25.161Z,12.70
2023-04-30T02:07:52.525Z,12.70
2023-04-30T02:10:22.054Z,12.60
2023-04-30T02:12:48.980Z,12.70
2023-04-30T02:15:15.848Z,12.70
2023-04-30T02:17:42.907Z,12.70
2023-04-30T02:20:10.585Z,12.70
2023-04-30T02:22:37.835Z,12.70
2023-04-30T02:25:04.796Z,12.70
2023-04-30T02:27:32.509Z,12.80
2023-04-30T02:30:00.188Z,12.80
2023-04-30T02:32:26.990Z,12.70
2023-04-30T02:34:53.697Z,12.80
2023-04-30T02:37:20.493Z,12.80
2023-04-30T02:39:47.291Z,12.80
2023-04-30T02:42:13.889Z,12.80
2023-04-30T02:44:41.785Z,12.80
2023-04-30T02:47:08.392Z,12.80
2023-04-30T02:49:35.066Z,12.80
2023-04-30T02:52:01.839Z,12.80
2023-04-30T02:54:28.472Z,12.80
2023-04-30T02:56:56.100Z,12.80
2023-04-30T02:59:22.820Z,12.80
2023-04-30T03:01:49.528Z,12.80
2023-04-30T03:04:16.169Z,12.80
2023-04-30T03:06:42.840Z,12.80
2023-04-30T03:09:09.549Z,12.80
2023-04-30T03:11:37.685Z,12.80
2023-04-30T03:14:04.970Z,12.80
2023-04-30T03:16:31.745Z,12.80
2023-04-30T03:18:58.582Z,12.80
2023-04-30T03:21:25.262Z,12.80
2023-04-30T03:23:51.879Z,12.80
2023-04-30T03:26:18.891Z,12.80
2023-04-30T03:28:45.527Z,12.80
2023-04-30T03:31:12.250Z,12.80
2023-04-30T03:33:38.972Z,12.80
2023-04-30T03:36:06.381Z,12.80
2023-04-30T03:38:33.024Z,12.80
2023-04-30T03:40:59.610Z,12.80
2023-04-30T03:43:26.252Z,12.70
2023-04-30T03:45:52.981Z,12.70
2023-04-30T03:48:20.337Z,12.70
2023-04-30T03:50:47.127Z,12.70
2023-04-30T03:53:13.757Z,12.70
2023-04-30T03:55:40.702Z,12.60
2023-04-30T03:58:07.861Z,12.70
2023-04-30T04:00:34.632Z,12.70
2023-04-30T04:03:01.452Z,12.70
2023-04-30T04:05:29.172Z,12.70
2023-04-30T04:07:55.859Z,12.70
2023-04-30T04:10:22.514Z,12.70
2023-04-30T04:12:49.346Z,12.60
2023-04-30T04:15:16.063Z,12.70
2023-04-30T04:17:42.776Z,12.70
2023-04-30T04:20:10.910Z,12.70
2023-04-30T04:22:39.473Z,12.70
2023-04-30T04:25:07.083Z,12.70
2023-04-30T04:27:33.944Z,12.70
2023-04-30T04:30:01.864Z,12.60
2023-04-30T04:32:29.054Z,12.60
2023-04-30T04:34:56.923Z,12.60
2023-04-30T04:37:23.531Z,12.60
2023-04-30T04:39:50.507Z,12.60
2023-04-30T04:42:17.926Z,12.60
2023-04-30T04:44:44.519Z,12.60
2023-04-30T04:47:12.658Z,12.60
2023-04-30T04:49:39.403Z,12.70
2023-04-30T04:52:06.444Z,12.70
2023-04-30T04:54:33.405Z,12.70
2023-04-30T04:56:59.982Z,12.70
2023-04-30T04:59:26.667Z,12.70
2023-04-30T05:01:53.388Z,12.70
2023-04-30T05:04:20.158Z,12.70
2023-04-30T05:06:46.953Z,12.70
2023-04-30T05:09:13.685Z,12.70
2023-04-30T05:11:41.580Z,12.70
2023-04-30T05:14:08.337Z,12.70
2023-04-30T05:16:35.015Z,12.70
2023-04-30T05:19:01.705Z,12.70
2023-04-30T05:21:29.662Z,12.70
2023-04-30T05:23:56.300Z,12.70
2023-04-30T05:26:24.386Z,12.70
2023-04-30T05:28:52.424Z,12.70
2023-04-30T05:31:20.924Z,12.70
2023-04-30T05:33:48.185Z,12.70
2023-04-30T05:36:15.112Z,12.70
2023-04-30T05:38:42.493Z,12.80
2023-04-30T05:41:12.286Z,12.80
2023-04-30T05:43:38.912Z,12.90
2023-04-30T05:46:05.690Z,12.90
2023-04-30T05:48:32.477Z,13.00
2023-04-30T05:50:59.097Z,13.00
2023-04-30T05:53:25.718Z,13.00
2023-04-30T05:55:52.332Z,13.00
2023-04-30T05:58:19.106Z,13.00
2023-04-30T06:00:49.819Z,13.10
2023-04-30T06:03:16.493Z,13.10
2023-04-30T06:05:44.216Z,13.10
2023-04-30T06:08:10.985Z,13.20
2023-04-30T06:10:38.785Z,13.10
2023-04-30T06:13:06.427Z,13.10
2023-04-30T06:15:33.264Z,13.20
2023-04-30T06:17:59.947Z,13.20
2023-04-30T06:20:27.286Z,13.30
2023-04-30T06:22:54.124Z,13.40
2023-04-30T06:25:20.960Z,13.50
2023-04-30T06:27:47.613Z,13.50
2023-04-30T06:30:14.294Z,13.60
2023-04-30T06:32:41.464Z,13.60
2023-04-30T06:35:08.750Z,13.70
2023-04-30T06:37:37.729Z,13.80
2023-04-30T06:40:06.088Z,13.90
2023-04-30T06:42:34.511Z,13.90
2023-04-30T06:45:06.635Z,14.00
2023-04-30T06:47:37.940Z,14.10
2023-04-30T06:50:05.656Z,14.10
2023-04-30T06:52:32.389Z,14.10
2023-04-30T06:54:58.968Z,14.20
2023-04-30T06:57:25.846Z,14.10
2023-04-30T06:59:53.095Z,14.20
2023-04-30T07:02:21.923Z,14.00
2023-04-30T07:04:49.405Z,14.00
2023-04-30T07:07:16.164Z,14.10
2023-04-30T07:09:42.802Z,14.10
2023-04-30T07:12:11.157Z,14.00
2023-04-30T07:14:37.799Z,14.00
2023-04-30T07:17:04.530Z,14.10
2023-04-30T07:19:32.442Z,14.10
2023-04-30T07:21:59.158Z,14.10
2023-04-30T07:24:25.809Z,14.00
2023-04-30T07:26:52.611Z,14.10
2023-04-30T07:29:19.391Z,14.10
2023-04-30T07:31:46.137Z,14.20
2023-04-30T07:34:13.284Z,14.30
2023-04-30T07:36:40.001Z,14.30
2023-04-30T07:39:07.216Z,14.40
2023-04-30T07:41:33.831Z,14.40
2023-04-30T07:44:00.411Z,14.50
2023-04-30T07:46:27.463Z,14.50
2023-04-30T07:48:54.078Z,14.50
2023-04-30T07:51:20.673Z,14.60
2023-04-30T07:53:47.257Z,14.70
2023-04-30T07:56:13.915Z,14.80
2023-04-30T07:58:40.530Z,14.90
2023-04-30T08:01:07.696Z,15.00
2023-04-30T08:03:34.593Z,15.00
2023-04-30T08:06:01.672Z,15.10
2023-04-30T08:08:28.270Z,15.20
2023-04-30T08:10:54.877Z,15.20
2023-04-30T08:13:21.493Z,15.30
2023-04-30T08:15:48.108Z,15.30
2023-04-30T08:18:14.777Z,15.30
2023-04-30T08:20:41.602Z,15.40
2023-04-30T08:23:08.220Z,15.50
2023-04-30T08:25:34.853Z,15.50
2023-04-30T08:28:02.012Z,15.60
2023-04-30T08:30:28.657Z,15.70
2023-04-30T08:32:57.516Z,15.80
2023-04-30T08:35:24.568Z,15.90
2023-04-30T08:37:51.495Z,16.00
2023-04-30T08:40:18.194Z,16.10
2023-04-30T08:43:04.780Z,16.10
2023-04-30T08:45:33.486Z,16.20
2023-04-30T08:48:01.422Z,16.30
2023-04-30T08:50:28.490Z,16.40
2023-04-30T08:52:55.269Z,16.50
2023-04-30T08:55:22.026Z,16.60
2023-04-30T08:57:48.699Z,16.60
2023-04-30T09:00:15.422Z,16.70
2023-04-30T09:02:43.001Z,16.80
2023-04-30T09:05:14.572Z,16.90
2023-04-30T09:07:48.993Z,16.90
2023-04-30T09:10:23.022Z,16.90
2023-04-30T09:13:06.699Z,17.00
2023-04-30T09:15:35.535Z,17.10
2023-04-30T09:18:12.259Z,17.20
2023-04-30T09:20:53.775Z,17.30
2023-04-30T09:23:20.460Z,17.40
2023-04-30T09:25:47.952Z,17.50
2023-04-30T09:28:14.707Z,17.60
2023-04-30T09:30:42.079Z,17.70
2023-04-30T09:33:11.877Z,17.80
2023-04-30T09:35:41.461Z,17.90
2023-04-30T09:38:24.744Z,18.00
2023-04-30T09:40:51.324Z,18.00
2023-04-30T09:43:17.988Z,18.00
2023-04-30T09:45:52.401Z,18.10
2023-04-30T09:48:25.402Z,18.20
2023-04-30T09:50:52.582Z,18.20
2023-04-30T09:53:20.094Z,18.00
2023-04-30T09:55:49.073Z,18.00
2023-04-30T09:58:17.035Z,18.00
2023-04-30T10:00:45.947Z,18.00
2023-04-30T10:03:14.092Z,18.10
2023-04-30T10:05:48.468Z,18.10
2023-04-30T10:08:17.890Z,18.20
2023-04-30T10:10:47.238Z,18.30
2023-04-30T10:13:19.720Z,18.30
2023-04-30T10:15:51.247Z,18.30
2023-04-30T10:18:28.357Z,18.30
2023-04-30T10:20:56.998Z,18.40
2023-04-30T10:23:24.296Z,18.50
2023-04-30T10:25:51.423Z,18.60
2023-04-30T10:28:18.076Z,18.50
2023-04-30T10:30:44.728Z,18.50
2023-04-30T10:33:41.818Z,18.60
2023-04-30T10:36:14.755Z,18.60
2023-04-30T10:38:41.580Z,18.60
2023-04-30T10:41:09.565Z,18.50
2023-04-30T10:43:36.560Z,18.50
2023-04-30T10:46:04.483Z,18.50
2023-04-30T10:48:35.433Z,18.70
2023-04-30T10:51:02.097Z,18.90
2023-04-30T10:53:32.129Z,19.00
2023-04-30T10:56:00.551Z,19.10
2023-04-30T10:58:31.395Z,19.10
2023-04-30T11:01:02.033Z,19.10
2023-04-30T11:03:30.175Z,19.10
2023-04-30T11:05:56.951Z,19.20
2023-04-30T11:08:52.902Z,19.30
2023-04-30T11:11:22.890Z,19.40
2023-04-30T11:14:00.568Z,19.40
2023-04-30T11:16:30.824Z,19.50
2023-04-30T11:19:05.824Z,19.60
2023-04-30T11:21:33.984Z,19.50
2023-04-30T11:24:04.485Z,19.50
2023-04-30T11:26:51.093Z,19.30
2023-04-30T11:29:18.531Z,19.00
2023-04-30T11:31:45.477Z,18.90
2023-04-30T11:34:13.217Z,18.70
2023-04-30T11:36:41.542Z,18.70
2023-04-30T11:39:09.341Z,18.60
2023-04-30T11:41:41.718Z,18.60
2023-04-30T11:44:23.895Z,18.70
2023-04-30T11:46:51.308Z,18.80
2023-04-30T11:49:18.152Z,18.90
2023-04-30T11:51:52.340Z,18.90
2023-04-30T11:54:19.349Z,19.00
2023-04-30T11:56:50.764Z,19.00
2023-04-30T11:59:19.127Z,19.10
2023-04-30T12:01:45.993Z,19.00
2023-04-30T12:04:13.678Z,19.10
2023-04-30T12:06:41.336Z,19.10
2023-04-30T12:09:09.418Z,19.10
2023-04-30T12:11:36.481Z,19.10
2023-04-30T12:14:07.288Z,19.20
2023-04-30T12:16:51.611Z,19.30
2023-04-30T12:19:19.356Z,19.20
2023-04-30T12:21:48.422Z,19.20
2023-04-30T12:24:16.713Z,19.30
2023-04-30T12:26:43.673Z,19.30
2023-04-30T12:29:14.245Z,19.40
2023-04-30T12:31:41.338Z,19.20
2023-04-30T12:34:10.750Z,19.20
2023-04-30T12:36:38.990Z,19.20
2023-04-30T12:39:09.520Z,19.20
2023-04-30T12:41:45.942Z,19.20
2023-04-30T12:44:19.697Z,19.30
2023-04-30T12:46:51.226Z,19.30
2023-04-30T12:49:25.182Z,19.30
2023-04-30T12:51:51.913Z,19.30
2023-04-30T12:54:26.304Z,19.20
2023-04-30T12:57:01.423Z,19.20
2023-04-30T12:59:28.880Z,19.20
2023-04-30T13:01:55.641Z,19.30
2023-04-30T13:04:22.358Z,19.30
2023-04-30T13:06:49.574Z,19.40
2023-04-30T13:09:16.349Z,19.50
2023-04-30T13:11:42.980Z,19.50
2023-04-30T13:14:11.188Z,19.60
2023-04-30T13:16:40.011Z,19.70
2023-04-30T13:19:07.061Z,19.70
2023-04-30T13:21:33.772Z,19.80
2023-04-30T13:24:00.598Z,19.80
2023-04-30T13:26:28.317Z,19.80
2023-04-30T13:28:54.974Z,19.80
2023-04-30T13:31:22.498Z,19.80
2023-04-30T13:33:49.712Z,19.80
2023-04-30T13:36:16.390Z,19.80
2023-04-30T13:38:43.392Z,19.90
2023-04-30T13:41:09.992Z,19.80
2023-04-30T13:43:40.680Z,19.80
2023-04-30T13:46:09.224Z,19.80
2023-04-30T13:48:35.996Z,19.80
2023-04-30T13:51:02.795Z,19.80
2023-04-30T13:53:29.434Z,19.80
2023-04-30T13:55:56.602Z,19.70
2023-04-30T13:58:23.216Z,19.70
2023-04-30T14:00:50.282Z,19.60
2023-04-30T14:03:18.434Z,19.50
2023-04-30T14:05:45.276Z,19.50
2023-04-30T14:08:12.691Z,19.50
2023-04-30T14:10:39.316Z,19.50
2023-04-30T14:13:06.403Z,19.60
2023-04-30T14:15:33.045Z,19.60
2023-04-30T14:18:02.468Z,19.60
2023-04-30T14:20:29.396Z,19.60
2023-04-30T14:22:56.098Z,19.70
2023-04-30T14:25:22.845Z,19.70
2023-04-30T14:27:49.556Z,19.70
2023-04-30T14:30:16.233Z,19.70
2023-04-30T14:32:42.909Z,19.70
2023-04-30T14:35:09.862Z,19.70
2023-04-30T14:37:36.636Z,19.70
2023-04-30T14:40:05.143Z,19.60
2023-04-30T14:42:31.850Z,19.60
2023-04-30T14:44:58.462Z,19.70
2023-04-30T14:47:27.404Z,19.60
2023-04-30T14:49:54.385Z,19.60
2023-04-30T14:52:21.291Z,19.50
2023-04-30T14:54:47.904Z,19.50
2023-04-30T14:57:15.047Z,19.50
2023-04-30T14:59:41.904Z,19.50
2023-04-30T15:02:09.236Z,19.50
2023-04-30T15:04:36.034Z,19.50
2023-04-30T15:07:02.693Z,19.50
2023-04-30T15:09:29.335Z,19.60
2023-04-30T15:11:56.018Z,19.60
2023-04-30T15:14:23.202Z,19.70
2023-04-30T15:16:49.822Z,19.80
2023-04-30T15:19:16.441Z,19.80
2023-04-30T15:21:43.412Z,19.70
2023-04-30T15:24:10.025Z,19.80
2023-04-30T15:26:36.737Z,19.70
2023-04-30T15:29:03.504Z,19.70
2023-04-30T15:31:32.473Z,19.70
2023-04-30T15:33:59.352Z,19.70
2023-04-30T15:36:26.541Z,19.70
2023-04-30T15:38:53.182Z,19.80
2023-04-30T15:41:19.807Z,19.80
2023-04-30T15:43:46.404Z,19.80
2023-04-30T15:46:13.737Z,19.80
2023-04-30T15:48:40.450Z,19.90
2023-04-30T15:51:07.163Z,20.00
2023-04-30T15:53:33.827Z,19.90
2023-04-30T15:56:00.559Z,20.00
2023-04-30T15:58:27.177Z,20.00
2023-04-30T16:00:53.898Z,19.90
2023-04-30T16:03:20.685Z,19.90
2023-04-30T16:05:47.515Z,19.90
2023-04-30T16:08:14.979Z,19.90
2023-04-30T16:10:42.141Z,19.90
2023-04-30T16:13:08.796Z,20.00
2023-04-30T16:15:35.605Z,20.00
2023-04-30T16:18:02.961Z,20.00
2023-04-30T16:20:31.405Z,20.00
2023-04-30T16:22:58.287Z,20.00
2023-04-30T16:25:25.094Z,19.90
2023-04-30T16:27:52.953Z,19.90
2023-04-30T16:30:19.675Z,19.70
2023-04-30T16:32:46.343Z,19.60
2023-04-30T16:35:13.282Z,19.60
2023-04-30T16:37:39.920Z,19.50
2023-04-30T16:40:08.178Z,19.50
2023-04-30T16:42:35.164Z,19.50
2023-04-30T16:45:02.113Z,19.40
2023-04-30T16:47:28.878Z,19.40
2023-04-30T16:49:56.700Z,19.30
2023-04-30T16:52:23.798Z,19.30
2023-04-30T16:54:50.411Z,19.30
2023-04-30T16:57:17.003Z,19.20
2023-04-30T16:59:43.626Z,19.10
2023-04-30T17:02:10.358Z,19.10
2023-04-30T17:04:37.092Z,19.00
2023-04-30T17:07:03.884Z,18.90
2023-04-30T17:09:31.237Z,18.90
2023-04-30T17:11:57.896Z,18.80
2023-04-30T17:14:24.544Z,18.70
2023-04-30T17:16:51.219Z,18.70
2023-04-30T17:19:18.066Z,18.60
2023-04-30T17:21:44.753Z,18.60
2023-04-30T17:24:11.415Z,18.60
2023-04-30T17:26:38.096Z,18.50
2023-04-30T17:29:06.097Z,18.50
2023-04-30T17:31:32.985Z,18.50
2023-04-30T17:34:00.209Z,18.40
2023-04-30T17:36:28.783Z,18.30
2023-04-30T17:38:56.369Z,18.30
2023-04-30T17:41:23.717Z,18.30
2023-04-30T17:43:51.572Z,18.40
2023-04-30T17:46:18.323Z,18.40
2023-04-30T17:48:44.969Z,18.30
2023-04-30T17:51:11.667Z,18.30
2023-04-30T17:53:38.337Z,18.30
2023-04-30T17:56:05.644Z,18.30
2023-04-30T17:58:32.622Z,18.20
2023-04-30T18:01:01.570Z,18.20
2023-04-30T18:03:28.586Z,18.20
2023-04-30T18:05:55.511Z,18.10
2023-04-30T18:08:22.236Z,18.00
2023-04-30T18:10:49.594Z,18.00
2023-04-30T18:13:16.279Z,18.00
2023-04-30T18:15:42.931Z,18.00
2023-04-30T18:18:09.758Z,17.90
2023-04-30T18:20:36.976Z,17.90
2023-04-30T18:23:05.212Z,17.90
2023-04-30T18:25:34.286Z,17.90
2023-04-30T18:28:01.318Z,17.90
2023-04-30T18:30:27.993Z,17.80
2023-04-30T18:32:54.658Z,17.80
2023-04-30T18:35:21.857Z,17.80
2023-04-30T18:37:49.130Z,17.80
2023-04-30T18:40:15.891Z,17.70
2023-04-30T18:42:42.503Z,17.50
2023-04-30T18:45:09.899Z,17.60
2023-04-30T18:47:36.672Z,17.50
2023-04-30T18:50:04.057Z,17.60
2023-04-30T18:52:30.860Z,17.50
2023-04-30T18:54:57.740Z,17.40
2023-04-30T18:57:24.374Z,17.40
2023-04-30T18:59:50.959Z,17.40
2023-04-30T19:02:17.625Z,17.50
2023-04-30T19:04:44.226Z,17.40
2023-04-30T19:07:11.588Z,17.50
2023-04-30T19:09:38.214Z,17.50
2023-04-30T19:12:05.031Z,17.50
2023-04-30T19:14:31.665Z,17.40
2023-04-30T19:16:58.605Z,17.40
2023-04-30T19:19:25.370Z,17.40
2023-04-30T19:21:53.304Z,17.40
2023-04-30T19:24:21.088Z,17.30
2023-04-30T19:26:48.714Z,17.30
2023-04-30T19:29:15.374Z,17.30
2023-04-30T19:31:42.084Z,17.30
2023-04-30T19:34:08.865Z,17.20
2023-04-30T19:36:35.524Z,17.20
2023-04-30T19:39:04.189Z,17.20
2023-04-30T19:41:30.797Z,17.20
2023-04-30T19:43:57.469Z,17.20
2023-04-30T19:46:24.192Z,17.20
2023-04-30T19:48:50.863Z,17.10
2023-04-30T19:51:17.535Z,17.10
2023-04-30T19:53:44.282Z,17.10
2023-04-30T19:56:11.247Z,17.10
2023-04-30T19:58:38.005Z,17.10
2023-04-30T20:01:05.332Z,17.10
2023-04-30T20:03:33.958Z,17.00
2023-04-30T20:06:02.717Z,17.00
2023-04-30T20:08:29.433Z,17.00
2023-04-30T20:10:57.200Z,17.00
2023-04-30T20:13:25.023Z,17.00
2023-04-30T20:15:51.951Z,17.00
2023-04-30T20:18:18.625Z,17.00
2023-04-30T20:20:45.338Z,17.00
2023-04-30T20:23:17.447Z,16.90
2023-04-30T20:25:45.632Z,16.90
2023-04-30T20:28:13.938Z,17.00
2023-04-30T20:30:44.139Z,16.90
2023-04-30T20:33:14.772Z,16.90
2023-04-30T20:35:44.069Z,16.90
2023-04-30T20:38:11.915Z,16.90
2023-04-30T20:40:41.671Z,16.80
2023-04-30T20:43:10.222Z,16.80
2023-04-30T20:45:37.226Z,16.80
2023-04-30T20:48:04.033Z,16.80
2023-04-30T20:50:30.761Z,16.70
2023-04-30T20:52:57.374Z,16.70
2023-04-30T20:55:24.228Z,16.70
2023-04-30T20:57:51.043Z,16.70
2023-04-30T21:00:18.063Z,16.70
2023-04-30T21:02:45.352Z,16.70
2023-04-30T21:05:12.156Z,16.60
2023-04-30T21:07:39.016Z,16.60
2023-04-30T21:10:07.961Z,16.60
2023-04-30T21:12:34.891Z,16.50
2023-04-30T21:15:01.563Z,16.50
2023-04-30T21:17:28.451Z,16.50
2023-04-30T21:19:59.136Z,16.50
2023-04-30T21:22:26.381Z,16.40
2023-04-30T21:24:53.948Z,16.40
2023-04-30T21:27:21.840Z,16.40
2023-04-30T21:29:48.868Z,16.40
2023-04-30T21:32:15.776Z,16.30
2023-04-30T21:34:43.982Z,16.30
2023-04-30T21:37:11.325Z,16.30
2023-04-30T21:39:38.030Z,16.20
2023-04-30T21:42:07.683Z,16.20
2023-04-30T21:44:35.985Z,16.20
2023-04-30T21:47:03.739Z,16.20
2023-04-30T21:49:31.236Z,16.10
2023-04-30T21:52:01.390Z,16.10
2023-04-30T21:54:28.282Z,16.10
2023-04-30T21:56:54.920Z,16.00
2023-04-30T21:59:21.541Z,15.90
2023-04-30T22:01:48.238Z,15.90
2023-04-30T22:04:16.139Z,15.90
2023-04-30T22:06:42.817Z,15.80
2023-04-30T22:09:09.527Z,15.80
2023-04-30T22:11:36.214Z,15.80
2023-04-30T22:14:04.060Z,15.70
2023-04-30T22:16:30.835Z,15.70
2023-04-30T22:18:58.984Z,15.70
2023-04-30T22:21:25.944Z,15.60
2023-04-30T22:23:52.549Z,15.60
2023-04-30T22:26:19.277Z,15.60
2023-04-30T22:28:45.921Z,15.50
2023-04-30T22:31:12.747Z,15.50
2023-04-30T22:33:39.528Z,15.50
2023-04-30T22:36:06.486Z,15.50
2023-04-30T22:38:33.205Z,15.50
2023-04-30T22:41:00.616Z,15.40
2023-04-30T22:43:30.907Z,15.40
2023-04-30T22:45:58.290Z,15.30
2023-04-30T22:48:26.842Z,15.30
2023-04-30T22:50:53.838Z,15.30
2023-04-30T22:53:20.904Z,15.30
2023-04-30T22:55:47.860Z,15.30
2023-04-30T22:58:14.496Z,15.30
2023-04-30T23:00:41.361Z,15.30
2023-04-30T23:03:08.191Z,15.30
2023-04-30T23:05:35.011Z,15.20
2023-04-30T23:08:01.641Z,15.20
2023-04-30T23:10:28.291Z,15.20
2023-04-30T23:12:56.334Z,15.20
2023-04-30T23:15:23.268Z,15.20
2023-04-30T23:17:50.145Z,15.20
2023-04-30T23:20:16.992Z,15.20
2023-04-30T23:22:43.688Z,15.20
2023-04-30T23:25:11.698Z,15.20
2023-04-30T23:27:38.340Z,15.20
2023-04-30T23:30:05.613Z,15.20
2023-04-30T23:32:33.241Z,15.10
2023-04-30T23:35:00.011Z,15.10
2023-04-30T23:37:27.139Z,15.10
2023-04-30T23:39:54.401Z,15.10
2023-04-30T23:42:21.233Z,15.10
2023-04-30T23:44:47.838Z,15.10
2023-04-30T23:47:14.476Z,15.00
2023-04-30T23:49:41.277Z,15.00
2023-04-30T23:52:07.918Z,15.00
2023-04-30T23:54:34.918Z,15.00
2023-04-30T23:57:01.883Z,15.00
2023-04-30T23:59:28.524Z,14.90
